.
WxDataArchive / Data Records for 2011-10-12
2011-10-11 October 2011 2011-10-13

Data Records for Wednesday, 12 October 2011

Time	Temp	Chill	HIndex	Humid	Dewpt	 Wind 	HiWind	WindDir	Rain 	Barom 
-----	----	-----	------	-----	-----	------	------	-------	-----	----- 
00:00	56.5	56.5	56.5	76	49.0	0	0	---	0.00	29.957 
00:05	56.5	56.5	56.5	76	49.0	0	0	---	0.00	29.957 
00:10	56.3	56.3	56.3	77	49.2	0	0	---	0.00	29.957 
00:15	56.3	56.3	56.3	77	49.2	0	0	---	0.00	29.956 
00:20	56.2	56.2	56.2	77	49.1	0	0	---	0.00	29.956 
00:25	56.2	56.2	56.2	77	49.1	0	0	---	0.00	29.956 
00:30	56.0	56.0	56.0	77	48.9	0	0	---	0.00	29.952 
00:35	56.0	56.0	56.0	77	48.9	0	0	---	0.00	29.952 
00:40	56.0	56.0	56.0	77	48.9	0	0	---	0.00	29.952 
00:45	56.0	56.0	56.0	77	48.9	0	0	---	0.00	29.948 
00:50	56.0	56.0	56.0	77	48.9	0	0	---	0.00	29.948 
00:55	56.0	56.0	56.0	77	48.9	0	0	---	0.00	29.948 
01:00	56.0	56.0	56.0	77	48.9	0	0	---	0.00	29.946 
01:05	56.0	56.0	56.0	77	48.9	0	0	---	0.00	29.946 
01:10	56.0	56.0	56.0	77	48.9	0	0	---	0.00	29.946 
01:15	56.0	56.0	56.0	77	48.9	0	0	---	0.00	29.941 
01:20	55.9	55.9	55.9	77	48.8	0	0	---	0.00	29.941 
01:25	55.7	55.7	55.7	78	48.9	0	0	---	0.00	29.941 
01:30	55.7	55.7	55.7	78	48.9	0	0	---	0.00	29.933 
01:35	55.6	55.6	55.6	78	48.8	0	0	---	0.00	29.933 
01:40	55.4	55.4	55.4	79	49.0	0	0	---	0.00	29.933 
01:45	55.3	55.3	55.3	79	48.9	0	0	---	0.00	29.933 
01:50	55.3	55.3	55.3	80	49.2	0	0	---	0.00	29.933 
01:55	55.1	55.1	55.1	80	49.0	0	0	---	0.00	29.933 
02:00	55.1	55.1	55.1	80	49.0	0	0	---	0.00	29.932 
02:05	55.0	55.0	55.0	80	48.9	0	0	---	0.00	29.932 
02:10	55.0	55.0	55.0	80	48.9	0	0	---	0.00	29.932 
02:15	54.8	54.8	54.8	80	48.7	0	0	---	0.00	29.932 
02:20	54.8	54.8	54.8	81	49.1	0	0	---	0.00	29.932 
02:25	54.7	54.7	54.7	81	49.0	0	0	---	0.00	29.932 
02:30	54.7	54.7	54.7	81	49.0	0	0	---	0.00	29.932 
02:35	54.5	54.5	54.5	82	49.1	0	0	---	0.00	29.932 
02:40	54.5	54.5	54.5	82	49.1	0	0	---	0.00	29.932 
02:45	54.5	54.5	54.5	82	49.1	0	0	---	0.00	29.931 
02:50	54.5	54.5	54.5	83	49.4	0	0	---	0.00	29.931 
02:55	54.4	54.4	54.4	83	49.3	0	0	---	0.00	29.931 
03:00	54.4	54.4	54.4	83	49.3	0	0	---	0.00	29.932 
03:05	54.4	54.4	54.4	83	49.3	0	0	---	0.00	29.932 
03:10	54.5	54.5	54.5	83	49.4	0	0	---	0.00	29.932 
03:15	54.5	54.5	54.5	84	49.8	0	0	---	0.00	29.931 
03:20	54.5	54.5	54.5	84	49.8	0	0	---	0.00	29.931 
03:25	54.5	54.5	54.5	84	49.8	0	0	---	0.00	29.931 
03:30	54.4	54.4	54.4	84	49.7	0	0	---	0.00	29.931 
03:35	54.4	54.4	54.4	84	49.7	0	0	---	0.00	29.931 
03:40	54.5	54.5	54.5	84	49.8	0	0	---	0.00	29.931 
03:45	54.5	54.5	54.5	84	49.8	0	0	---	0.00	29.923 
03:50	54.5	54.5	54.5	84	49.8	0	0	---	0.00	29.923 
03:55	54.5	54.5	54.5	84	49.8	0	0	---	0.00	29.923 
04:00	54.5	54.5	54.5	84	49.8	0	0	---	0.00	29.916 
04:05	54.5	54.5	54.5	85	50.1	0	0	---	0.00	29.916 
04:10	54.4	54.4	54.4	85	50.0	0	0	---	0.00	29.916 
04:15	54.4	54.4	54.4	85	50.0	0	0	---	0.00	29.916 
04:20	54.4	54.4	54.4	85	50.0	0	0	---	0.00	29.916 
04:25	54.4	54.4	54.4	85	50.0	0	0	---	0.00	29.916 
04:30	54.2	54.2	54.2	85	49.8	0	0	---	0.00	29.914 
04:35	54.2	54.2	54.2	85	49.8	0	0	---	0.00	29.914 
04:40	54.2	54.2	54.2	86	50.1	0	0	---	0.00	29.914 
04:45	54.2	54.2	54.2	86	50.1	0	0	---	0.00	29.906 
04:50	54.2	54.2	54.2	86	50.1	0	0	---	0.00	29.906 
04:55	54.4	54.4	54.4	86	50.3	0	0	---	0.00	29.906 
05:00	54.4	54.4	54.4	86	50.3	0	0	---	0.00	29.905 
05:05	54.5	54.5	54.5	86	50.4	0	0	---	0.00	29.905 
05:10	54.5	54.5	54.5	86	50.4	0	0	---	0.00	29.905 
05:15	54.5	54.5	54.5	87	50.7	0	0	---	0.00	29.904 
05:20	54.5	54.5	54.5	87	50.7	0	0	---	0.00	29.904 
05:25	54.7	54.7	54.7	87	50.9	0	0	---	0.00	29.904 
05:30	54.7	54.7	54.7	87	50.9	0	0	---	0.00	29.904 
05:35	54.7	54.7	54.7	86	50.6	0	0	---	0.00	29.904 
05:40	54.7	54.7	54.7	86	50.6	0	0	---	0.00	29.904 
05:45	54.7	54.7	54.7	86	50.6	0	0	---	0.00	29.907 
05:50	54.7	54.7	54.7	87	50.9	0	0	---	0.00	29.907 
05:55	54.8	54.8	54.8	87	51.0	0	0	---	0.00	29.907 
06:00	54.8	54.8	54.8	87	51.0	0	0	---	0.00	29.913 
06:05	55.0	55.0	55.0	87	51.2	0	0	---	0.00	29.913 
06:10	55.1	55.1	55.1	87	51.3	0	0	---	0.00	29.913 
06:15	55.1	55.1	55.1	86	51.0	0	0	---	0.00	29.915 
06:20	55.3	55.3	55.3	84	50.5	0	1	158	0.00	29.915 
06:25	55.4	55.4	55.4	82	50.0	0	2	158	0.00	29.915 
06:30	55.7	55.7	55.7	81	50.0	0	2	68	0.00	29.910 
06:35	55.9	55.9	55.9	81	50.2	0	2	68	0.00	29.910 
06:40	55.9	55.9	55.9	81	50.2	0	1	68	0.00	29.910 
06:45	55.9	55.9	55.9	81	50.2	0	1	68	0.00	29.914 
06:50	55.7	55.7	55.7	81	50.0	0	1	68	0.00	29.914 
06:55	55.7	55.7	55.7	81	50.0	0	0	---	0.00	29.914 
07:00	55.6	55.6	55.6	81	49.9	0	0	---	0.00	29.915 
07:05	55.4	55.4	55.4	81	49.7	0	0	---	0.00	29.915 
07:10	55.3	55.3	55.3	81	49.6	0	0	---	0.00	29.915 
07:15	55.1	55.1	55.1	82	49.7	0	0	---	0.00	29.919 
07:20	55.0	55.0	55.0	82	49.6	0	0	---	0.00	29.919 
07:25	54.7	54.7	54.7	82	49.3	0	0	---	0.00	29.919 
07:30	54.4	54.4	54.4	83	49.3	0	0	---	0.00	29.915 
07:35	54.1	54.1	54.1	84	49.4	0	0	---	0.00	29.915 
07:40	53.9	53.9	53.9	84	49.2	0	0	---	0.00	29.915 
07:45	53.8	53.8	53.8	85	49.4	0	0	---	0.00	29.917 
07:50	53.6	53.6	53.6	85	49.2	0	0	---	0.00	29.917 
07:55	53.5	53.5	53.5	85	49.1	0	0	---	0.00	29.917 
08:00	53.5	53.5	53.5	86	49.4	0	0	---	0.00	29.919 
08:05	53.3	53.3	53.3	86	49.2	0	0	---	0.00	29.919 
08:10	53.2	53.2	53.2	86	49.1	0	0	---	0.00	29.919 
08:15	53.2	53.2	53.2	86	49.1	0	0	---	0.00	29.920 
08:20	53.2	53.2	53.2	87	49.4	0	1	68	0.00	29.920 
08:25	53.2	53.2	53.2	87	49.4	0	1	68	0.00	29.920 
08:30	53.2	53.2	53.2	87	49.4	0	0	---	0.00	29.923 
08:35	53.3	53.3	53.3	87	49.5	0	0	---	0.00	29.923 
08:40	53.5	53.5	53.5	87	49.7	0	0	---	0.00	29.923 
08:45	53.6	53.6	53.6	87	49.8	0	0	---	0.00	29.926 
08:50	53.8	53.8	53.8	86	49.7	0	1	68	0.00	29.926 
08:55	54.1	54.1	54.1	86	50.0	0	1	68	0.00	29.926 
09:00	54.4	54.4	54.4	85	50.0	0	1	68	0.00	29.928 
09:05	54.7	54.7	54.7	85	50.3	0	1	68	0.00	29.928 
09:10	55.0	55.0	55.0	84	50.3	0	2	68	0.00	29.928 
09:15	55.3	55.3	55.3	84	50.5	0	1	68	0.00	29.928 
09:20	55.7	55.7	55.7	84	50.9	0	1	68	0.00	29.928 
09:25	56.0	56.0	56.0	84	51.2	0	1	68	0.00	29.928 
09:30	56.5	56.5	56.5	84	51.7	0	1	68	0.00	29.926 
09:35	56.7	56.7	56.7	83	51.6	0	1	68	0.00	29.926 
09:40	57.2	57.2	57.2	83	52.1	0	1	68	0.00	29.926 
09:45	57.6	57.6	57.6	82	52.1	0	1	68	0.00	29.923 
09:50	58.1	58.1	58.1	82	52.6	0	1	90	0.00	29.923 
09:55	58.4	58.4	58.4	82	52.9	0	2	90	0.00	29.923 
10:00	58.9	58.9	58.9	81	53.1	0	1	158	0.00	29.917 
10:05	59.3	59.3	59.3	81	53.5	0	2	158	0.00	29.917 
10:10	59.8	59.8	59.8	80	53.6	0	3	158	0.00	29.917 
10:15	60.2	60.2	60.2	79	53.7	0	2	112	0.00	29.913 
10:20	61.0	61.0	61.0	77	53.7	0	2	112	0.00	29.913 
10:25	61.6	61.6	61.6	76	54.0	0	2	112	0.00	29.913 
10:30	62.1	62.1	62.1	75	54.1	1	4	112	0.00	29.910 
10:35	62.6	62.6	62.6	74	54.2	1	3	112	0.00	29.910 
10:40	62.9	62.9	62.9	74	54.5	1	2	135	0.00	29.910 
10:45	63.1	63.1	63.1	73	54.3	1	3	135	0.00	29.905 
10:50	63.4	63.4	63.4	73	54.6	0	3	90	0.00	29.905 
10:55	63.5	63.5	63.5	73	54.7	0	1	90	0.00	29.905 
11:00	63.9	63.9	63.9	71	54.3	0	1	90	0.00	29.896 
11:05	64.2	64.2	64.2	71	54.6	0	1	90	0.00	29.896 
11:10	64.5	64.5	64.5	70	54.5	0	1	90	0.00	29.896 
11:15	64.8	64.8	64.8	69	54.4	0	2	90	0.00	29.892 
11:20	65.3	65.3	65.3	70	55.3	0	1	90	0.00	29.892 
11:25	65.8	65.8	65.8	67	54.5	0	2	90	0.00	29.892 
11:30	66.1	66.1	66.1	66	54.4	1	3	90	0.00	29.889 
11:35	66.4	66.4	66.4	63	53.4	1	3	68	0.00	29.889 
11:40	66.8	66.8	66.8	65	54.6	0	3	68	0.00	29.889 
11:45	66.9	66.9	66.9	62	53.4	1	3	90	0.00	29.882 
11:50	67.1	67.1	67.1	62	53.6	1	4	270	0.00	29.882 
11:55	67.4	67.4	67.4	62	53.9	0	2	270	0.00	29.882 
12:00	67.6	67.6	67.6	60	53.2	1	4	270	0.00	29.877 
12:05	67.9	67.9	67.9	59	53.0	1	4	90	0.00	29.877 
12:10	68.3	68.3	68.3	60	53.9	1	5	90	0.00	29.877 
12:15	68.6	68.6	68.6	58	53.2	1	4	135	0.00	29.873 
12:20	68.9	68.9	68.9	58	53.5	1	4	90	0.00	29.873 
12:25	68.6	68.6	68.6	58	53.2	2	9	90	0.00	29.873 
12:30	68.4	68.4	68.4	60	54.0	1	5	68	0.00	29.868 
12:35	68.6	68.6	68.6	59	53.7	2	4	90	0.00	29.868 
12:40	68.4	68.4	68.4	59	53.5	2	5	90	0.00	29.868 
12:45	68.4	68.4	68.4	59	53.5	1	5	112	0.00	29.861 
12:50	68.6	68.6	68.6	60	54.1	2	5	90	0.00	29.861 
12:55	68.9	68.9	68.9	58	53.5	2	5	112	0.00	29.861 
13:00	69.1	69.1	69.1	60	54.6	1	4	68	0.00	29.852 
13:05	69.3	69.3	69.3	58	53.9	0	3	68	0.00	29.852 
13:10	69.4	69.4	69.4	57	53.5	1	3	68	0.00	29.852 
13:15	69.3	69.3	69.3	59	54.3	1	3	68	0.00	29.844 
13:20	68.8	68.8	68.8	58	53.4	2	5	90	0.00	29.844 
13:25	68.6	68.6	68.6	59	53.7	1	3	90	0.00	29.844 
13:30	68.6	68.6	68.6	59	53.7	1	4	90	0.00	29.842 
13:35	68.8	68.8	68.8	56	52.5	2	6	90	0.00	29.842 
13:40	68.9	68.9	68.9	57	53.0	2	4	112	0.00	29.842 
13:45	69.1	69.1	69.1	59	54.2	0	3	68	0.00	29.837 
13:50	69.3	69.3	69.3	58	53.9	1	4	68	0.00	29.837 
13:55	69.6	69.6	69.6	57	53.7	0	3	68	0.00	29.837 
14:00	69.8	69.8	69.8	56	53.4	1	3	68	0.00	29.827 
14:05	69.6	69.6	69.6	57	53.7	1	5	90	0.00	29.827 
14:10	69.6	69.6	69.6	56	53.2	1	4	112	0.00	29.827 
14:15	69.4	69.4	69.4	57	53.5	0	1	112	0.00	29.822 
14:20	69.3	69.3	69.3	58	53.9	1	3	135	0.00	29.822 
14:25	68.9	68.9	68.9	56	52.5	1	6	135	0.00	29.822 
14:30	68.4	68.4	68.4	57	52.6	2	6	90	0.00	29.816 
14:35	68.1	68.1	68.1	58	52.8	1	5	90	0.00	29.816 
14:40	68.3	68.3	68.3	59	53.4	1	4	90	0.00	29.816 
14:45	68.4	68.4	68.4	59	53.5	1	4	90	0.00	29.812 
14:50	68.6	68.6	68.6	58	53.2	2	5	90	0.00	29.812 
14:55	68.9	68.9	68.9	58	53.5	1	4	112	0.00	29.812 
15:00	69.1	69.1	69.1	55	52.2	1	2	112	0.00	29.809 
15:05	69.1	69.1	69.1	57	53.2	1	3	112	0.00	29.809 
15:10	69.4	69.4	69.4	54	52.0	2	5	135	0.00	29.809 
15:15	69.6	69.6	69.6	54	52.2	1	7	90	0.00	29.801 
15:20	69.8	69.8	69.8	55	52.9	2	5	90	0.00	29.801 
15:25	70.1	70.1	70.1	55	53.2	1	3	90	0.00	29.801 
15:30	70.1	70.1	70.1	53	52.2	2	4	90	0.00	29.795 
15:35	69.4	69.4	69.4	54	52.0	2	5	90	0.00	29.795 
15:40	68.9	68.9	68.9	56	52.5	1	2	90	0.00	29.795 
15:45	68.4	68.4	68.4	56	52.1	0	2	90	0.00	29.792 
15:50	68.1	68.1	68.1	56	51.8	1	3	90	0.00	29.792 
15:55	67.9	67.9	67.9	57	52.1	0	2	68	0.00	29.792 
16:00	67.8	67.8	67.8	57	52.0	0	4	68	0.00	29.791 
16:05	67.9	67.9	67.9	59	53.0	1	4	90	0.00	29.791 
16:10	67.8	67.8	67.8	58	52.5	2	6	90	0.00	29.791 
16:15	67.6	67.6	67.6	59	52.8	2	5	90	0.00	29.786 
16:20	67.4	67.4	67.4	60	53.0	1	3	68	0.00	29.786 
16:25	67.1	67.1	67.1	60	52.7	2	4	90	0.00	29.786 
16:30	66.8	66.8	66.8	61	52.9	1	3	68	0.00	29.784 
16:35	66.8	66.8	66.8	61	52.9	1	5	90	0.00	29.784 
16:40	66.9	66.9	66.9	61	53.0	1	5	90	0.00	29.784 
16:45	67.1	67.1	67.1	61	53.2	1	4	90	0.00	29.783 
16:50	67.3	67.3	67.3	60	52.9	1	4	90	0.00	29.783 
16:55	67.3	67.3	67.3	59	52.5	2	5	90	0.00	29.783 
17:00	67.4	67.4	67.4	59	52.6	1	5	112	0.00	29.781 
17:05	67.4	67.4	67.4	58	52.1	2	4	68	0.00	29.781 
17:10	67.6	67.6	67.6	58	52.3	1	3	68	0.00	29.781 
17:15	67.8	67.8	67.8	59	52.9	2	5	68	0.00	29.769 
17:20	67.8	67.8	67.8	59	52.9	1	3	90	0.00	29.769 
17:25	67.8	67.8	67.8	58	52.5	1	4	90	0.00	29.769 
17:30	67.4	67.4	67.4	59	52.6	2	9	68	0.00	29.766 
17:35	67.1	67.1	67.1	60	52.7	1	3	90	0.00	29.766 
17:40	66.9	66.9	66.9	60	52.6	1	5	68	0.00	29.766 
17:45	66.8	66.8	66.8	60	52.5	2	5	68	0.00	29.764 
17:50	66.6	66.6	66.6	61	52.7	1	4	45	0.00	29.764 
17:55	66.6	66.6	66.6	61	52.7	1	4	45	0.00	29.764 
18:00	66.4	66.4	66.4	60	52.1	1	4	90	0.00	29.761 
18:05	66.3	66.3	66.3	60	52.0	3	5	90	0.00	29.761 
18:10	66.1	66.1	66.1	60	51.8	3	6	68	0.00	29.761 
18:15	65.8	65.8	65.8	61	52.0	2	4	112	0.00	29.761 
18:20	65.6	65.6	65.6	62	52.2	1	3	45	0.00	29.761 
18:25	65.3	65.3	65.3	63	52.4	1	4	90	0.00	29.761 
18:30	65.0	65.0	65.0	64	52.5	2	9	90	0.00	29.761 
18:35	64.7	64.7	64.7	65	52.7	1	5	68	0.00	29.761 
18:40	64.3	64.3	64.3	65	52.3	2	5	68	0.00	29.761 
18:45	64.0	64.0	64.0	66	52.4	0	2	68	0.00	29.759 
18:50	63.7	63.7	63.7	67	52.5	1	3	68	0.00	29.759 
18:55	63.4	63.4	63.4	67	52.2	0	3	135	0.00	29.759 
19:00	63.1	63.1	63.1	68	52.4	1	3	135	0.00	29.758 
19:05	62.7	62.7	62.7	69	52.4	0	2	135	0.00	29.758 
19:10	62.4	62.4	62.4	69	52.1	0	3	135	0.00	29.758 
19:15	62.3	62.3	62.3	70	52.4	0	1	135	0.00	29.755 
19:20	62.0	62.0	62.0	70	52.1	0	2	135	0.00	29.755 
19:25	61.6	61.6	61.6	71	52.1	0	2	135	0.00	29.755 
19:30	61.5	61.5	61.5	72	52.4	0	1	135	0.00	29.758 
19:35	61.2	61.2	61.2	73	52.5	0	0	---	0.00	29.758 
19:40	61.0	61.0	61.0	73	52.3	0	0	---	0.00	29.758 
19:45	60.7	60.7	60.7	74	52.4	0	0	---	0.00	29.760 
19:50	60.5	60.5	60.5	75	52.5	0	0	---	0.00	29.760 
19:55	60.2	60.2	60.2	75	52.2	0	0	---	0.00	29.760 
20:00	59.9	59.9	59.9	76	52.3	0	0	---	0.00	29.760 
20:05	59.8	59.8	59.8	77	52.6	0	1	135	0.00	29.760 
20:10	59.5	59.5	59.5	77	52.3	0	0	---	0.00	29.760 
20:15	59.3	59.3	59.3	78	52.4	0	0	---	0.00	29.764 
20:20	59.2	59.2	59.2	79	52.7	0	0	---	0.00	29.764 
20:25	58.9	58.9	58.9	79	52.4	0	1	135	0.00	29.764 
20:30	58.7	58.7	58.7	80	52.5	0	0	---	0.00	29.764 
20:35	58.4	58.4	58.4	80	52.3	0	0	---	0.00	29.764 
20:40	58.3	58.3	58.3	81	52.5	0	0	---	0.00	29.764 
20:45	58.1	58.1	58.1	82	52.6	0	0	---	0.00	29.767 
20:50	58.0	58.0	58.0	82	52.5	0	0	---	0.00	29.767 
20:55	57.6	57.6	57.6	82	52.1	0	0	---	0.00	29.767 
21:00	57.3	57.3	57.3	83	52.2	0	0	---	0.00	29.763 
21:05	57.2	57.2	57.2	83	52.1	0	0	---	0.00	29.763 
21:10	56.9	56.9	56.9	83	51.8	0	0	---	0.00	29.763 
21:15	56.7	56.7	56.7	84	51.9	0	0	---	0.00	29.758 
21:20	56.5	56.5	56.5	85	52.0	0	0	---	0.00	29.758 
21:25	56.3	56.3	56.3	85	51.8	0	0	---	0.00	29.758 
21:30	56.2	56.2	56.2	86	52.1	0	0	---	0.00	29.758 
21:35	55.9	55.9	55.9	86	51.8	0	0	---	0.00	29.758 
21:40	55.7	55.7	55.7	86	51.6	0	0	---	0.00	29.758 
21:45	55.6	55.6	55.6	87	51.8	0	0	---	0.00	29.759 
21:50	55.4	55.4	55.4	88	51.9	0	0	---	0.00	29.759 
21:55	55.3	55.3	55.3	88	51.8	0	0	---	0.00	29.759 
22:00	55.1	55.1	55.1	88	51.6	0	0	---	0.00	29.758 
22:05	54.8	54.8	54.8	88	51.3	0	0	---	0.00	29.758 
22:10	54.7	54.7	54.7	88	51.2	0	0	---	0.00	29.758 
22:15	54.5	54.5	54.5	88	51.0	0	0	---	0.00	29.754 
22:20	54.5	54.5	54.5	89	51.3	0	0	---	0.00	29.754 
22:25	54.4	54.4	54.4	89	51.2	0	0	---	0.00	29.754 
22:30	54.1	54.1	54.1	89	50.9	0	0	---	0.00	29.751 
22:35	53.9	53.9	53.9	90	51.0	0	0	---	0.00	29.751 
22:40	53.8	53.8	53.8	90	50.9	0	0	---	0.00	29.751 
22:45	53.8	53.8	53.8	90	50.9	0	0	---	0.00	29.746 
22:50	53.6	53.6	53.6	91	51.0	0	0	---	0.00	29.746 
22:55	53.5	53.5	53.5	91	50.9	0	0	---	0.00	29.746 
23:00	53.3	53.3	53.3	91	50.7	0	0	---	0.00	29.740 
23:05	53.2	53.2	53.2	91	50.6	0	0	---	0.00	29.740 
23:10	53.1	53.1	53.1	91	50.5	0	0	---	0.00	29.740 
23:15	52.8	52.8	52.8	91	50.2	0	0	---	0.00	29.734 
23:20	52.6	52.6	52.6	91	50.0	0	0	---	0.00	29.734 
23:25	52.5	52.5	52.5	92	50.2	0	0	---	0.00	29.734 
23:30	52.3	52.3	52.3	92	50.0	0	0	---	0.00	29.729 
23:35	52.2	52.2	52.2	92	49.9	0	0	---	0.00	29.729 
23:40	52.0	52.0	52.0	92	49.7	0	0	---	0.00	29.729 
23:45	51.9	51.9	51.9	92	49.6	0	0	---	0.00	29.728 
23:50	51.7	51.7	51.7	92	49.5	0	0	---	0.00	29.728 
23:55	51.6	51.6	51.6	92	49.4	0	0	---	0.00	29.728 

CoCoRaHS
IN-AL-39
A2 Web Hosting
Creative Commons License
GoDaddy
search engine by freefind advanced

loaded 2018-11-21 01:10:58 • last modified 2010-11-18 10:43:29
Privacy PolicyDisclaimer
• wx.awcolley.com is powered by PmWiki v.2002016 •
• all content (unless otherwise noted) © 2018 A W Colley